sensor_id;sensor_type;location;lat;lon;timestamp;P1;durP1;ratioP1;P2;durP2;ratioP2
13421;SDS011;6782;55.904;13.396;2023-11-21T00:01:03;8.90;;;8.07;;
13421;SDS011;6782;55.904;13.396;2023-11-21T00:03:50;9.50;;;8.50;;
13421;SDS011;6782;55.904;13.396;2023-11-21T00:06:40;10.03;;;9.13;;
13421;SDS011;6782;55.904;13.396;2023-11-21T00:09:28;10.17;;;9.00;;
13421;SDS011;6782;55.904;13.396;2023-11-21T00:12:15;11.77;;;9.93;;
13421;SDS011;6782;55.904;13.396;2023-11-21T00:15:03;10.40;;;9.40;;
13421;SDS011;6782;55.904;13.396;2023-11-21T00:17:51;10.63;;;9.50;;
13421;SDS011;6782;55.904;13.396;2023-11-21T00:20:38;10.50;;;9.50;;
13421;SDS011;6782;55.904;13.396;2023-11-21T00:23:25;10.17;;;9.17;;
13421;SDS011;6782;55.904;13.396;2023-11-21T00:26:14;10.93;;;9.83;;
13421;SDS011;6782;55.904;13.396;2023-11-21T00:29:01;9.87;;;8.87;;
13421;SDS011;6782;55.904;13.396;2023-11-21T00:31:48;11.33;;;9.67;;
13421;SDS011;6782;55.904;13.396;2023-11-21T00:34:35;10.50;;;9.40;;
13421;SDS011;6782;55.904;13.396;2023-11-21T00:37:23;10.63;;;9.53;;
13421;SDS011;6782;55.904;13.396;2023-11-21T00:40:12;9.63;;;8.63;;
13421;SDS011;6782;55.904;13.396;2023-11-21T00:43:02;10.80;;;9.70;;
13421;SDS011;6782;55.904;13.396;2023-11-21T00:45:49;9.53;;;8.63;;
13421;SDS011;6782;55.904;13.396;2023-11-21T00:48:36;13.00;;;10.40;;
13421;SDS011;6782;55.904;13.396;2023-11-21T00:51:23;12.27;;;9.97;;
13421;SDS011;6782;55.904;13.396;2023-11-21T00:54:10;12.20;;;10.27;;
13421;SDS011;6782;55.904;13.396;2023-11-21T00:56:57;11.37;;;10.00;;
13421;SDS011;6782;55.904;13.396;2023-11-21T00:59:46;10.53;;;9.47;;
13421;SDS011;6782;55.904;13.396;2023-11-21T01:02:33;12.70;;;10.03;;
13421;SDS011;6782;55.904;13.396;2023-11-21T01:05:22;11.27;;;9.57;;
13421;SDS011;6782;55.904;13.396;2023-11-21T01:08:09;11.40;;;9.23;;
13421;SDS011;6782;55.904;13.396;2023-11-21T01:10:56;10.53;;;9.43;;
13421;SDS011;6782;55.904;13.396;2023-11-21T01:13:43;10.13;;;9.13;;
13421;SDS011;6782;55.904;13.396;2023-11-21T01:16:32;11.37;;;9.80;;
13421;SDS011;6782;55.904;13.396;2023-11-21T01:19:19;11.37;;;10.23;;
13421;SDS011;6782;55.904;13.396;2023-11-21T01:22:06;10.83;;;9.43;;
13421;SDS011;6782;55.904;13.396;2023-11-21T01:24:54;10.30;;;9.30;;
13421;SDS011;6782;55.904;13.396;2023-11-21T01:27:41;11.57;;;9.17;;
13421;SDS011;6782;55.904;13.396;2023-11-21T01:30:29;10.67;;;9.70;;
13421;SDS011;6782;55.904;13.396;2023-11-21T01:33:18;10.53;;;9.53;;
13421;SDS011;6782;55.904;13.396;2023-11-21T01:36:05;9.00;;;8.07;;
13421;SDS011;6782;55.904;13.396;2023-11-21T01:38:53;10.40;;;9.30;;
13421;SDS011;6782;55.904;13.396;2023-11-21T01:41:40;10.43;;;9.43;;
13421;SDS011;6782;55.904;13.396;2023-11-21T01:44:29;10.90;;;9.40;;
13421;SDS011;6782;55.904;13.396;2023-11-21T01:47:16;10.67;;;9.60;;
13421;SDS011;6782;55.904;13.396;2023-11-21T01:50:05;11.57;;;9.57;;
13421;SDS011;6782;55.904;13.396;2023-11-21T01:52:54;10.53;;;9.53;;
13421;SDS011;6782;55.904;13.396;2023-11-21T01:55:42;10.50;;;9.20;;
13421;SDS011;6782;55.904;13.396;2023-11-21T01:58:30;9.83;;;8.70;;
13421;SDS011;6782;55.904;13.396;2023-11-21T02:01:17;9.93;;;9.03;;
13421;SDS011;6782;55.904;13.396;2023-11-21T02:04:05;10.50;;;9.00;;
13421;SDS011;6782;55.904;13.396;2023-11-21T02:06:55;10.23;;;9.20;;
13421;SDS011;6782;55.904;13.396;2023-11-21T02:09:42;11.13;;;9.10;;
13421;SDS011;6782;55.904;13.396;2023-11-21T02:12:30;10.13;;;8.93;;
13421;SDS011;6782;55.904;13.396;2023-11-21T02:15:18;9.67;;;8.67;;
13421;SDS011;6782;55.904;13.396;2023-11-21T02:18:07;9.53;;;8.63;;
13421;SDS011;6782;55.904;13.396;2023-11-21T02:20:56;9.60;;;8.10;;
13421;SDS011;6782;55.904;13.396;2023-11-21T02:23:45;8.57;;;7.70;;
13421;SDS011;6782;55.904;13.396;2023-11-21T02:26:32;8.97;;;7.80;;
13421;SDS011;6782;55.904;13.396;2023-11-21T02:29:20;9.87;;;8.97;;
13421;SDS011;6782;55.904;13.396;2023-11-21T02:32:13;11.23;;;8.30;;
13421;SDS011;6782;55.904;13.396;2023-11-21T02:35:00;11.03;;;9.50;;
13421;SDS011;6782;55.904;13.396;2023-11-21T02:37:53;9.10;;;8.30;;
13421;SDS011;6782;55.904;13.396;2023-11-21T02:40:42;8.90;;;8.00;;
13421;SDS011;6782;55.904;13.396;2023-11-21T02:43:29;9.57;;;8.67;;
13421;SDS011;6782;55.904;13.396;2023-11-21T02:46:16;10.33;;;8.57;;
13421;SDS011;6782;55.904;13.396;2023-11-21T02:49:04;8.93;;;8.00;;
13421;SDS011;6782;55.904;13.396;2023-11-21T02:51:51;9.50;;;8.57;;
13421;SDS011;6782;55.904;13.396;2023-11-21T02:54:40;9.80;;;8.80;;
13421;SDS011;6782;55.904;13.396;2023-11-21T02:57:29;9.67;;;8.67;;
13421;SDS011;6782;55.904;13.396;2023-11-21T03:00:17;8.90;;;8.00;;
13421;SDS011;6782;55.904;13.396;2023-11-21T03:03:04;8.93;;;7.63;;
13421;SDS011;6782;55.904;13.396;2023-11-21T03:05:51;9.00;;;8.10;;
13421;SDS011;6782;55.904;13.396;2023-11-21T03:08:38;9.00;;;8.10;;
13421;SDS011;6782;55.904;13.396;2023-11-21T03:11:27;8.80;;;7.97;;
13421;SDS011;6782;55.904;13.396;2023-11-21T03:14:16;8.80;;;7.90;;
13421;SDS011;6782;55.904;13.396;2023-11-21T03:17:03;9.30;;;8.40;;
13421;SDS011;6782;55.904;13.396;2023-11-21T03:19:52;8.90;;;8.03;;
13421;SDS011;6782;55.904;13.396;2023-11-21T03:22:40;8.97;;;7.80;;
13421;SDS011;6782;55.904;13.396;2023-11-21T03:25:27;8.33;;;7.43;;
13421;SDS011;6782;55.904;13.396;2023-11-21T03:28:14;8.10;;;7.30;;
13421;SDS011;6782;55.904;13.396;2023-11-21T03:31:03;8.90;;;8.10;;
13421;SDS011;6782;55.904;13.396;2023-11-21T03:33:51;8.10;;;7.30;;
13421;SDS011;6782;55.904;13.396;2023-11-21T03:36:39;10.03;;;7.70;;
13421;SDS011;6782;55.904;13.396;2023-11-21T03:39:26;9.37;;;7.33;;
13421;SDS011;6782;55.904;13.396;2023-11-21T03:42:14;8.77;;;7.40;;
13421;SDS011;6782;55.904;13.396;2023-11-21T03:45:02;8.00;;;7.23;;
13421;SDS011;6782;55.904;13.396;2023-11-21T03:47:51;8.90;;;8.00;;
13421;SDS011;6782;55.904;13.396;2023-11-21T03:50:38;8.87;;;7.97;;
13421;SDS011;6782;55.904;13.396;2023-11-21T03:53:25;8.27;;;7.47;;
13421;SDS011;6782;55.904;13.396;2023-11-21T03:56:12;8.60;;;7.57;;
13421;SDS011;6782;55.904;13.396;2023-11-21T03:59:00;8.40;;;6.90;;
13421;SDS011;6782;55.904;13.396;2023-11-21T04:01:48;10.33;;;7.77;;
13421;SDS011;6782;55.904;13.396;2023-11-21T04:04:37;8.43;;;7.60;;
13421;SDS011;6782;55.904;13.396;2023-11-21T04:07:24;8.40;;;7.10;;
13421;SDS011;6782;55.904;13.396;2023-11-21T04:10:12;8.10;;;6.77;;
13421;SDS011;6782;55.904;13.396;2023-11-21T04:12:59;8.83;;;7.67;;
13421;SDS011;6782;55.904;13.396;2023-11-21T04:15:46;8.03;;;7.27;;
13421;SDS011;6782;55.904;13.396;2023-11-21T04:18:33;8.37;;;7.53;;
13421;SDS011;6782;55.904;13.396;2023-11-21T04:21:22;8.23;;;6.90;;
13421;SDS011;6782;55.904;13.396;2023-11-21T04:24:10;7.73;;;6.97;;
13421;SDS011;6782;55.904;13.396;2023-11-21T04:26:57;7.47;;;6.70;;
13421;SDS011;6782;55.904;13.396;2023-11-21T04:29:44;7.50;;;6.70;;
13421;SDS011;6782;55.904;13.396;2023-11-21T04:32:31;7.80;;;7.00;;
13421;SDS011;6782;55.904;13.396;2023-11-21T04:35:18;8.07;;;7.27;;
13421;SDS011;6782;55.904;13.396;2023-11-21T04:38:07;7.97;;;7.17;;
13421;SDS011;6782;55.904;13.396;2023-11-21T04:40:54;7.63;;;6.93;;
13421;SDS011;6782;55.904;13.396;2023-11-21T04:43:41;7.17;;;6.37;;
13421;SDS011;6782;55.904;13.396;2023-11-21T04:46:29;7.23;;;6.53;;
13421;SDS011;6782;55.904;13.396;2023-11-21T04:49:16;8.03;;;7.30;;
13421;SDS011;6782;55.904;13.396;2023-11-21T04:52:03;8.30;;;7.40;;
13421;SDS011;6782;55.904;13.396;2023-11-21T04:54:51;8.23;;;7.03;;
13421;SDS011;6782;55.904;13.396;2023-11-21T04:57:39;7.07;;;6.37;;
13421;SDS011;6782;55.904;13.396;2023-11-21T05:00:27;7.50;;;6.80;;
13421;SDS011;6782;55.904;13.396;2023-11-21T05:03:14;8.37;;;7.47;;
13421;SDS011;6782;55.904;13.396;2023-11-21T05:06:01;7.40;;;6.70;;
13421;SDS011;6782;55.904;13.396;2023-11-21T05:08:50;7.93;;;7.13;;
13421;SDS011;6782;55.904;13.396;2023-11-21T05:11:39;7.23;;;6.53;;
13421;SDS011;6782;55.904;13.396;2023-11-21T05:14:26;7.50;;;6.77;;
13421;SDS011;6782;55.904;13.396;2023-11-21T05:17:13;8.60;;;7.23;;
13421;SDS011;6782;55.904;13.396;2023-11-21T05:20:00;8.00;;;7.30;;
13421;SDS011;6782;55.904;13.396;2023-11-21T05:22:49;7.40;;;6.23;;
13421;SDS011;6782;55.904;13.396;2023-11-21T05:25:36;8.00;;;7.10;;
13421;SDS011;6782;55.904;13.396;2023-11-21T05:28:25;10.03;;;7.03;;
13421;SDS011;6782;55.904;13.396;2023-11-21T05:31:12;7.10;;;6.40;;
13421;SDS011;6782;55.904;13.396;2023-11-21T05:34:00;7.53;;;6.73;;
13421;SDS011;6782;55.904;13.396;2023-11-21T05:36:47;8.20;;;6.47;;
13421;SDS011;6782;55.904;13.396;2023-11-21T05:39:34;7.90;;;6.07;;
13421;SDS011;6782;55.904;13.396;2023-11-21T05:42:21;7.63;;;6.83;;
13421;SDS011;6782;55.904;13.396;2023-11-21T05:45:11;7.40;;;6.50;;
13421;SDS011;6782;55.904;13.396;2023-11-21T05:47:58;8.77;;;6.73;;
13421;SDS011;6782;55.904;13.396;2023-11-21T05:50:45;7.27;;;6.53;;
13421;SDS011;6782;55.904;13.396;2023-11-21T05:53:34;7.67;;;6.33;;
13421;SDS011;6782;55.904;13.396;2023-11-21T05:56:21;7.77;;;7.00;;
13421;SDS011;6782;55.904;13.396;2023-11-21T05:59:08;7.47;;;6.70;;
13421;SDS011;6782;55.904;13.396;2023-11-21T06:01:57;7.07;;;6.40;;
13421;SDS011;6782;55.904;13.396;2023-11-21T06:04:44;7.90;;;7.10;;
13421;SDS011;6782;55.904;13.396;2023-11-21T06:07:32;7.37;;;6.67;;
13421;SDS011;6782;55.904;13.396;2023-11-21T06:10:19;9.17;;;7.93;;
13421;SDS011;6782;55.904;13.396;2023-11-21T06:13:07;8.17;;;7.37;;
13421;SDS011;6782;55.904;13.396;2023-11-21T06:15:55;9.23;;;7.27;;
13421;SDS011;6782;55.904;13.396;2023-11-21T06:18:44;8.03;;;6.80;;
13421;SDS011;6782;55.904;13.396;2023-11-21T06:21:32;7.70;;;6.87;;
13421;SDS011;6782;55.904;13.396;2023-11-21T06:24:19;8.50;;;6.87;;
13421;SDS011;6782;55.904;13.396;2023-11-21T06:27:06;8.50;;;7.47;;
13421;SDS011;6782;55.904;13.396;2023-11-21T06:29:53;9.00;;;7.53;;
13421;SDS011;6782;55.904;13.396;2023-11-21T06:32:41;7.47;;;6.63;;
13421;SDS011;6782;55.904;13.396;2023-11-21T06:35:32;8.97;;;6.63;;
13421;SDS011;6782;55.904;13.396;2023-11-21T06:38:20;8.17;;;6.60;;
13421;SDS011;6782;55.904;13.396;2023-11-21T06:41:08;7.63;;;6.10;;
13421;SDS011;6782;55.904;13.396;2023-11-21T06:43:55;7.37;;;6.57;;
13421;SDS011;6782;55.904;13.396;2023-11-21T06:46:44;7.77;;;5.87;;
13421;SDS011;6782;55.904;13.396;2023-11-21T06:49:31;7.30;;;6.37;;
13421;SDS011;6782;55.904;13.396;2023-11-21T06:52:20;6.90;;;6.20;;
13421;SDS011;6782;55.904;13.396;2023-11-21T06:55:08;6.97;;;6.23;;
13421;SDS011;6782;55.904;13.396;2023-11-21T06:57:56;7.27;;;6.47;;
13421;SDS011;6782;55.904;13.396;2023-11-21T07:00:43;7.63;;;6.67;;
13421;SDS011;6782;55.904;13.396;2023-11-21T07:03:32;7.43;;;6.57;;
13421;SDS011;6782;55.904;13.396;2023-11-21T07:06:19;6.50;;;5.73;;
13421;SDS011;6782;55.904;13.396;2023-11-21T07:09:08;7.27;;;6.37;;
13421;SDS011;6782;55.904;13.396;2023-11-21T07:11:57;8.27;;;6.70;;
13421;SDS011;6782;55.904;13.396;2023-11-21T07:14:44;7.70;;;6.50;;
13421;SDS011;6782;55.904;13.396;2023-11-21T07:17:31;7.20;;;6.50;;
13421;SDS011;6782;55.904;13.396;2023-11-21T07:20:18;8.47;;;6.30;;
13421;SDS011;6782;55.904;13.396;2023-11-21T07:23:06;7.43;;;6.70;;
13421;SDS011;6782;55.904;13.396;2023-11-21T07:25:55;7.30;;;6.50;;
13421;SDS011;6782;55.904;13.396;2023-11-21T07:28:43;7.43;;;6.60;;
13421;SDS011;6782;55.904;13.396;2023-11-21T07:31:30;7.40;;;6.63;;
13421;SDS011;6782;55.904;13.396;2023-11-21T07:34:19;9.10;;;6.50;;
13421;SDS011;6782;55.904;13.396;2023-11-21T07:37:07;7.97;;;6.23;;
13421;SDS011;6782;55.904;13.396;2023-11-21T07:39:54;7.03;;;5.93;;
13421;SDS011;6782;55.904;13.396;2023-11-21T07:42:43;7.73;;;6.90;;
13421;SDS011;6782;55.904;13.396;2023-11-21T07:45:30;7.47;;;6.43;;
13421;SDS011;6782;55.904;13.396;2023-11-21T07:48:18;7.87;;;6.47;;
13421;SDS011;6782;55.904;13.396;2023-11-21T07:51:05;7.13;;;6.23;;
13421;SDS011;6782;55.904;13.396;2023-11-21T07:53:53;7.60;;;6.43;;
13421;SDS011;6782;55.904;13.396;2023-11-21T07:56:41;6.73;;;6.03;;
13421;SDS011;6782;55.904;13.396;2023-11-21T07:59:30;8.83;;;6.47;;
13421;SDS011;6782;55.904;13.396;2023-11-21T08:02:17;7.07;;;5.73;;
13421;SDS011;6782;55.904;13.396;2023-11-21T08:05:04;6.80;;;6.10;;
13421;SDS011;6782;55.904;13.396;2023-11-21T08:07:53;6.77;;;6.03;;
13421;SDS011;6782;55.904;13.396;2023-11-21T08:10:40;6.37;;;5.70;;
13421;SDS011;6782;55.904;13.396;2023-11-21T08:13:28;5.37;;;4.87;;
13421;SDS011;6782;55.904;13.396;2023-11-21T08:16:18;6.87;;;5.93;;
13421;SDS011;6782;55.904;13.396;2023-11-21T08:19:05;5.73;;;5.23;;
13421;SDS011;6782;55.904;13.396;2023-11-21T08:21:54;5.70;;;5.20;;
13421;SDS011;6782;55.904;13.396;2023-11-21T08:24:41;6.67;;;5.13;;
13421;SDS011;6782;55.904;13.396;2023-11-21T08:27:28;5.50;;;4.87;;
13421;SDS011;6782;55.904;13.396;2023-11-21T08:30:15;5.63;;;4.77;;
13421;SDS011;6782;55.904;13.396;2023-11-21T08:33:06;5.93;;;5.03;;
13421;SDS011;6782;55.904;13.396;2023-11-21T08:35:53;5.77;;;5.20;;
13421;SDS011;6782;55.904;13.396;2023-11-21T08:38:41;5.00;;;4.50;;
13421;SDS011;6782;55.904;13.396;2023-11-21T08:41:28;5.53;;;4.37;;
13421;SDS011;6782;55.904;13.396;2023-11-21T08:44:16;4.50;;;4.10;;
13421;SDS011;6782;55.904;13.396;2023-11-21T08:47:03;4.90;;;4.40;;
13421;SDS011;6782;55.904;13.396;2023-11-21T08:49:52;5.97;;;4.47;;
13421;SDS011;6782;55.904;13.396;2023-11-21T08:52:39;4.47;;;4.07;;
13421;SDS011;6782;55.904;13.396;2023-11-21T08:55:27;4.97;;;4.00;;
13421;SDS011;6782;55.904;13.396;2023-11-21T08:58:14;4.40;;;4.00;;
13421;SDS011;6782;55.904;13.396;2023-11-21T09:01:02;3.47;;;3.23;;
13421;SDS011;6782;55.904;13.396;2023-11-21T09:03:49;4.57;;;3.73;;
13421;SDS011;6782;55.904;13.396;2023-11-21T09:06:38;3.70;;;3.40;;
13421;SDS011;6782;55.904;13.396;2023-11-21T09:09:26;3.67;;;3.33;;
13421;SDS011;6782;55.904;13.396;2023-11-21T09:12:15;3.60;;;3.30;;
13421;SDS011;6782;55.904;13.396;2023-11-21T09:15:05;3.67;;;3.20;;
13421;SDS011;6782;55.904;13.396;2023-11-21T09:17:53;4.07;;;3.17;;
13421;SDS011;6782;55.904;13.396;2023-11-21T09:20:40;4.23;;;3.37;;
13421;SDS011;6782;55.904;13.396;2023-11-21T09:23:29;4.73;;;3.30;;
13421;SDS011;6782;55.904;13.396;2023-11-21T09:26:17;3.20;;;2.80;;
13421;SDS011;6782;55.904;13.396;2023-11-21T09:29:04;3.50;;;3.07;;
13421;SDS011;6782;55.904;13.396;2023-11-21T09:31:52;4.33;;;3.20;;
13421;SDS011;6782;55.904;13.396;2023-11-21T09:34:40;4.60;;;3.70;;
13421;SDS011;6782;55.904;13.396;2023-11-21T09:37:27;3.43;;;3.13;;
13421;SDS011;6782;55.904;13.396;2023-11-21T09:40:16;3.40;;;3.10;;
13421;SDS011;6782;55.904;13.396;2023-11-21T09:43:11;3.60;;;3.30;;
13421;SDS011;6782;55.904;13.396;2023-11-21T09:46:03;3.47;;;3.10;;
13421;SDS011;6782;55.904;13.396;2023-11-21T09:48:56;3.33;;;3.03;;
13421;SDS011;6782;55.904;13.396;2023-11-21T09:51:50;3.47;;;3.17;;
13421;SDS011;6782;55.904;13.396;2023-11-21T09:54:42;3.50;;;3.20;;
13421;SDS011;6782;55.904;13.396;2023-11-21T09:57:31;3.53;;;3.23;;
13421;SDS011;6782;55.904;13.396;2023-11-21T10:00:19;3.47;;;3.17;;
13421;SDS011;6782;55.904;13.396;2023-11-21T10:03:09;3.17;;;2.87;;
13421;SDS011;6782;55.904;13.396;2023-11-21T10:05:57;4.03;;;3.10;;
13421;SDS011;6782;55.904;13.396;2023-11-21T10:08:46;3.30;;;2.70;;
13421;SDS011;6782;55.904;13.396;2023-11-21T10:11:36;3.43;;;3.03;;
13421;SDS011;6782;55.904;13.396;2023-11-21T10:14:26;3.20;;;2.90;;
13421;SDS011;6782;55.904;13.396;2023-11-21T10:17:15;3.63;;;3.00;;
13421;SDS011;6782;55.904;13.396;2023-11-21T10:20:05;3.10;;;2.80;;
13421;SDS011;6782;55.904;13.396;2023-11-21T10:22:57;3.40;;;2.90;;
13421;SDS011;6782;55.904;13.396;2023-11-21T10:25:44;3.17;;;2.83;;
13421;SDS011;6782;55.904;13.396;2023-11-21T10:28:34;3.00;;;2.73;;
13421;SDS011;6782;55.904;13.396;2023-11-21T10:31:26;4.30;;;2.80;;
13421;SDS011;6782;55.904;13.396;2023-11-21T10:34:15;3.07;;;2.77;;
13421;SDS011;6782;55.904;13.396;2023-11-21T10:37:11;2.93;;;2.73;;
13421;SDS011;6782;55.904;13.396;2023-11-21T10:39:58;3.30;;;2.70;;
13421;SDS011;6782;55.904;13.396;2023-11-21T10:42:46;3.50;;;2.77;;
13421;SDS011;6782;55.904;13.396;2023-11-21T10:45:33;3.13;;;2.63;;
13421;SDS011;6782;55.904;13.396;2023-11-21T10:48:22;3.53;;;2.80;;
13421;SDS011;6782;55.904;13.396;2023-11-21T10:51:09;2.97;;;2.77;;
13421;SDS011;6782;55.904;13.396;2023-11-21T10:53:56;3.10;;;2.70;;
13421;SDS011;6782;55.904;13.396;2023-11-21T10:56:45;4.60;;;2.50;;
13421;SDS011;6782;55.904;13.396;2023-11-21T10:59:36;3.27;;;2.97;;
13421;SDS011;6782;55.904;13.396;2023-11-21T11:02:24;2.87;;;2.60;;
13421;SDS011;6782;55.904;13.396;2023-11-21T11:05:15;3.17;;;2.90;;
13421;SDS011;6782;55.904;13.396;2023-11-21T11:08:05;3.03;;;2.73;;
13421;SDS011;6782;55.904;13.396;2023-11-21T11:10:55;3.63;;;3.33;;
13421;SDS011;6782;55.904;13.396;2023-11-21T11:13:44;2.60;;;2.40;;
13421;SDS011;6782;55.904;13.396;2023-11-21T11:16:32;2.77;;;2.50;;
13421;SDS011;6782;55.904;13.396;2023-11-21T11:19:20;3.20;;;2.90;;
13421;SDS011;6782;55.904;13.396;2023-11-21T11:22:12;2.83;;;2.53;;
13421;SDS011;6782;55.904;13.396;2023-11-21T11:25:14;3.43;;;2.97;;
13421;SDS011;6782;55.904;13.396;2023-11-21T11:28:12;3.63;;;2.80;;
13421;SDS011;6782;55.904;13.396;2023-11-21T11:31:05;3.00;;;2.80;;
13421;SDS011;6782;55.904;13.396;2023-11-21T11:34:05;3.53;;;2.57;;
13421;SDS011;6782;55.904;13.396;2023-11-21T11:37:03;4.13;;;2.73;;
13421;SDS011;6782;55.904;13.396;2023-11-21T11:39:55;3.17;;;2.87;;
13421;SDS011;6782;55.904;13.396;2023-11-21T11:42:54;2.70;;;2.50;;
13421;SDS011;6782;55.904;13.396;2023-11-21T11:45:43;3.00;;;2.57;;
13421;SDS011;6782;55.904;13.396;2023-11-21T11:48:35;2.70;;;2.50;;
13421;SDS011;6782;55.904;13.396;2023-11-21T11:51:25;3.43;;;3.13;;
13421;SDS011;6782;55.904;13.396;2023-11-21T11:54:13;3.43;;;2.90;;
13421;SDS011;6782;55.904;13.396;2023-11-21T11:57:05;4.03;;;2.83;;
13421;SDS011;6782;55.904;13.396;2023-11-21T12:00:11;3.53;;;2.57;;
13421;SDS011;6782;55.904;13.396;2023-11-21T12:03:05;3.07;;;2.77;;
13421;SDS011;6782;55.904;13.396;2023-11-21T12:05:54;3.10;;;2.60;;
13421;SDS011;6782;55.904;13.396;2023-11-21T12:08:44;3.53;;;3.07;;
13421;SDS011;6782;55.904;13.396;2023-11-21T12:11:32;2.63;;;2.40;;
13421;SDS011;6782;55.904;13.396;2023-11-21T12:14:22;3.73;;;3.13;;
13421;SDS011;6782;55.904;13.396;2023-11-21T12:17:10;3.07;;;2.80;;
13421;SDS011;6782;55.904;13.396;2023-11-21T12:20:01;3.50;;;2.83;;
13421;SDS011;6782;55.904;13.396;2023-11-21T12:22:50;6.73;;;4.67;;
13421;SDS011;6782;55.904;13.396;2023-11-21T12:25:39;3.83;;;3.43;;
13421;SDS011;6782;55.904;13.396;2023-11-21T12:28:27;4.13;;;3.73;;
13421;SDS011;6782;55.904;13.396;2023-11-21T12:31:16;4.53;;;3.57;;
13421;SDS011;6782;55.904;13.396;2023-11-21T12:34:03;3.37;;;3.07;;
13421;SDS011;6782;55.904;13.396;2023-11-21T12:36:52;8.17;;;7.40;;
13421;SDS011;6782;55.904;13.396;2023-11-21T12:39:40;4.00;;;3.57;;
13421;SDS011;6782;55.904;13.396;2023-11-21T12:42:28;3.80;;;3.50;;
13421;SDS011;6782;55.904;13.396;2023-11-21T12:45:19;3.87;;;3.50;;
13421;SDS011;6782;55.904;13.396;2023-11-21T12:48:12;3.33;;;3.03;;
13421;SDS011;6782;55.904;13.396;2023-11-21T12:51:01;3.40;;;3.10;;
13421;SDS011;6782;55.904;13.396;2023-11-21T12:53:49;3.70;;;3.20;;
13421;SDS011;6782;55.904;13.396;2023-11-21T12:56:38;3.40;;;3.10;;
13421;SDS011;6782;55.904;13.396;2023-11-21T12:59:25;3.47;;;3.17;;
13421;SDS011;6782;55.904;13.396;2023-11-21T13:02:13;4.10;;;3.70;;
13421;SDS011;6782;55.904;13.396;2023-11-21T13:05:02;3.20;;;2.90;;
13421;SDS011;6782;55.904;13.396;2023-11-21T13:07:58;3.60;;;3.30;;
13421;SDS011;6782;55.904;13.396;2023-11-21T13:10:49;3.77;;;3.47;;
13421;SDS011;6782;55.904;13.396;2023-11-21T13:13:40;3.30;;;3.00;;
13421;SDS011;6782;55.904;13.396;2023-11-21T13:16:29;4.10;;;3.10;;
13421;SDS011;6782;55.904;13.396;2023-11-21T13:19:17;3.73;;;3.33;;
13421;SDS011;6782;55.904;13.396;2023-11-21T13:22:09;4.13;;;3.27;;
13421;SDS011;6782;55.904;13.396;2023-11-21T13:24:56;3.40;;;3.10;;
13421;SDS011;6782;55.904;13.396;2023-11-21T13:27:44;3.90;;;3.50;;
13421;SDS011;6782;55.904;13.396;2023-11-21T13:30:32;3.97;;;3.23;;
13421;SDS011;6782;55.904;13.396;2023-11-21T13:33:20;3.90;;;3.57;;
13421;SDS011;6782;55.904;13.396;2023-11-21T13:36:13;10.00;;;9.00;;
13421;SDS011;6782;55.904;13.396;2023-11-21T13:39:09;3.67;;;3.37;;
13421;SDS011;6782;55.904;13.396;2023-11-21T13:42:01;4.27;;;3.87;;
13421;SDS011;6782;55.904;13.396;2023-11-21T13:44:49;5.93;;;3.90;;
13421;SDS011;6782;55.904;13.396;2023-11-21T13:47:37;3.87;;;3.37;;
13421;SDS011;6782;55.904;13.396;2023-11-21T13:50:25;4.90;;;3.90;;
13421;SDS011;6782;55.904;13.396;2023-11-21T13:53:18;4.57;;;3.40;;
13421;SDS011;6782;55.904;13.396;2023-11-21T13:56:10;5.53;;;3.20;;
13421;SDS011;6782;55.904;13.396;2023-11-21T13:58:59;3.80;;;3.33;;
13421;SDS011;6782;55.904;13.396;2023-11-21T14:01:54;3.80;;;3.40;;
13421;SDS011;6782;55.904;13.396;2023-11-21T14:04:44;3.37;;;3.07;;
13421;SDS011;6782;55.904;13.396;2023-11-21T14:07:40;5.67;;;3.53;;
13421;SDS011;6782;55.904;13.396;2023-11-21T14:10:33;3.77;;;3.47;;
13421;SDS011;6782;55.904;13.396;2023-11-21T14:13:30;3.43;;;3.00;;
13421;SDS011;6782;55.904;13.396;2023-11-21T14:16:18;4.17;;;3.60;;
13421;SDS011;6782;55.904;13.396;2023-11-21T14:19:07;3.90;;;3.40;;
13421;SDS011;6782;55.904;13.396;2023-11-21T14:22:01;3.60;;;3.23;;
13421;SDS011;6782;55.904;13.396;2023-11-21T14:24:48;3.63;;;3.33;;
13421;SDS011;6782;55.904;13.396;2023-11-21T14:27:37;3.70;;;3.30;;
13421;SDS011;6782;55.904;13.396;2023-11-21T14:30:26;3.67;;;3.37;;
13421;SDS011;6782;55.904;13.396;2023-11-21T14:33:15;6.00;;;3.83;;
13421;SDS011;6782;55.904;13.396;2023-11-21T14:36:02;4.40;;;3.57;;
13421;SDS011;6782;55.904;13.396;2023-11-21T14:38:53;3.40;;;3.07;;
13421;SDS011;6782;55.904;13.396;2023-11-21T14:41:40;3.77;;;3.37;;
13421;SDS011;6782;55.904;13.396;2023-11-21T14:44:30;4.30;;;3.60;;
13421;SDS011;6782;55.904;13.396;2023-11-21T14:47:25;4.40;;;3.47;;
13421;SDS011;6782;55.904;13.396;2023-11-21T14:50:12;6.07;;;3.27;;
13421;SDS011;6782;55.904;13.396;2023-11-21T14:53:17;7.23;;;3.83;;
13421;SDS011;6782;55.904;13.396;2023-11-21T14:56:24;3.70;;;2.93;;
13421;SDS011;6782;55.904;13.396;2023-11-21T14:59:16;6.63;;;3.67;;
13421;SDS011;6782;55.904;13.396;2023-11-21T15:02:02;4.77;;;3.80;;
13421;SDS011;6782;55.904;13.396;2023-11-21T15:05:01;5.63;;;3.43;;
13421;SDS011;6782;55.904;13.396;2023-11-21T15:07:48;4.57;;;3.50;;
13421;SDS011;6782;55.904;13.396;2023-11-21T15:10:35;4.30;;;3.20;;
13421;SDS011;6782;55.904;13.396;2023-11-21T15:13:31;4.33;;;3.40;;
13421;SDS011;6782;55.904;13.396;2023-11-21T15:16:18;5.53;;;3.57;;
13421;SDS011;6782;55.904;13.396;2023-11-21T15:19:05;5.80;;;3.63;;
13421;SDS011;6782;55.904;13.396;2023-11-21T15:21:56;6.50;;;3.53;;
13421;SDS011;6782;55.904;13.396;2023-11-21T15:24:44;4.20;;;3.27;;
13421;SDS011;6782;55.904;13.396;2023-11-21T15:27:32;4.40;;;3.57;;
13421;SDS011;6782;55.904;13.396;2023-11-21T15:30:20;10.60;;;3.53;;
13421;SDS011;6782;55.904;13.396;2023-11-21T15:33:10;7.70;;;3.67;;
13421;SDS011;6782;55.904;13.396;2023-11-21T15:35:57;7.00;;;3.70;;
13421;SDS011;6782;55.904;13.396;2023-11-21T15:38:46;10.07;;;3.73;;
13421;SDS011;6782;55.904;13.396;2023-11-21T15:41:33;6.60;;;3.83;;
13421;SDS011;6782;55.904;13.396;2023-11-21T15:44:22;5.80;;;3.43;;
13421;SDS011;6782;55.904;13.396;2023-11-21T15:47:11;6.90;;;3.60;;
13421;SDS011;6782;55.904;13.396;2023-11-21T15:49:58;4.67;;;3.40;;
13421;SDS011;6782;55.904;13.396;2023-11-21T15:52:45;5.00;;;4.23;;
13421;SDS011;6782;55.904;13.396;2023-11-21T15:55:34;6.60;;;4.27;;
13421;SDS011;6782;55.904;13.396;2023-11-21T15:58:27;5.13;;;3.97;;
13421;SDS011;6782;55.904;13.396;2023-11-21T16:01:14;4.80;;;3.70;;
13421;SDS011;6782;55.904;13.396;2023-11-21T16:04:01;4.80;;;4.30;;
13421;SDS011;6782;55.904;13.396;2023-11-21T16:06:49;5.93;;;3.87;;
13421;SDS011;6782;55.904;13.396;2023-11-21T16:09:36;5.10;;;3.37;;
13421;SDS011;6782;55.904;13.396;2023-11-21T16:12:25;6.53;;;3.63;;
13421;SDS011;6782;55.904;13.396;2023-11-21T16:15:12;7.47;;;3.47;;
13421;SDS011;6782;55.904;13.396;2023-11-21T16:17:59;3.83;;;3.53;;
13421;SDS011;6782;55.904;13.396;2023-11-21T16:20:47;5.17;;;4.10;;
13421;SDS011;6782;55.904;13.396;2023-11-21T16:23:35;6.17;;;4.00;;
13421;SDS011;6782;55.904;13.396;2023-11-21T16:26:22;4.97;;;4.17;;
13421;SDS011;6782;55.904;13.396;2023-11-21T16:29:11;4.03;;;3.63;;
13421;SDS011;6782;55.904;13.396;2023-11-21T16:31:58;4.73;;;3.70;;
13421;SDS011;6782;55.904;13.396;2023-11-21T16:34:47;4.90;;;3.50;;
13421;SDS011;6782;55.904;13.396;2023-11-21T16:37:35;4.37;;;3.83;;
13421;SDS011;6782;55.904;13.396;2023-11-21T16:40:22;4.83;;;3.90;;
13421;SDS011;6782;55.904;13.396;2023-11-21T16:43:10;4.63;;;3.77;;
13421;SDS011;6782;55.904;13.396;2023-11-21T16:45:59;5.13;;;3.37;;
13421;SDS011;6782;55.904;13.396;2023-11-21T16:48:46;4.67;;;3.70;;
13421;SDS011;6782;55.904;13.396;2023-11-21T16:51:34;4.43;;;3.70;;
13421;SDS011;6782;55.904;13.396;2023-11-21T16:54:21;4.67;;;4.07;;